createdAt,value
2022-12-28T00:01:26.423Z,15.63
2022-12-28T00:03:53.828Z,22.13
2022-12-28T00:06:23.717Z,18.73
2022-12-28T00:08:54.164Z,14.10
2022-12-28T00:11:28.257Z,21.37
2022-12-28T00:13:59.975Z,18.80
2022-12-28T00:16:36.193Z,17.73
2022-12-28T00:19:11.072Z,17.37
2022-12-28T00:21:38.403Z,17.03
2022-12-28T00:24:05.955Z,20.17
2022-12-28T00:26:34.638Z,17.77
2022-12-28T00:29:05.313Z,21.57
2022-12-28T00:31:33.908Z,18.37
2022-12-28T00:34:01.262Z,18.30
2022-12-28T00:37:11.203Z,17.33
2022-12-28T00:39:15.392Z,22.37
2022-12-28T00:41:42.449Z,15.70
2022-12-28T00:44:10.717Z,17.57
2022-12-28T00:46:37.940Z,24.37
2022-12-28T00:49:04.749Z,22.97
2022-12-28T00:51:33.552Z,20.17
2022-12-28T00:54:00.360Z,24.40
2022-12-28T00:56:27.499Z,16.70
2022-12-28T00:58:59.203Z,21.23
2022-12-28T01:01:27.514Z,22.70
2022-12-28T01:03:59.188Z,25.50
2022-12-28T01:06:27.603Z,19.97
2022-12-28T01:08:54.899Z,21.83
2022-12-28T01:11:24.761Z,19.03
2022-12-28T01:13:55.125Z,21.87
2022-12-28T01:16:27.113Z,21.90
2022-12-28T01:18:56.327Z,19.47
2022-12-28T01:21:26.813Z,20.30
2022-12-28T01:23:55.967Z,19.33
2022-12-28T01:26:24.733Z,23.57
2022-12-28T01:28:51.699Z,25.13
2022-12-28T01:31:20.170Z,21.93
2022-12-28T01:33:47.715Z,27.13
2022-12-28T01:36:18.171Z,22.37
2022-12-28T01:38:46.233Z,28.73
2022-12-28T01:41:16.131Z,21.00
2022-12-28T01:44:07.293Z,23.87
2022-12-28T01:46:45.352Z,24.13
2022-12-28T01:49:35.145Z,23.40
2022-12-28T01:52:08.093Z,25.63
2022-12-28T01:55:00.322Z,24.13
2022-12-28T01:57:30.576Z,26.80
2022-12-28T02:00:05.619Z,21.10
2022-12-28T02:02:48.475Z,23.90
2022-12-28T02:05:16.861Z,27.60
2022-12-28T02:08:15.994Z,28.77
2022-12-28T02:10:45.919Z,25.17
2022-12-28T02:13:17.160Z,30.07
2022-12-28T02:15:45.147Z,26.70
2022-12-28T02:18:14.622Z,24.13
2022-12-28T02:20:52.562Z,28.53
2022-12-28T02:23:48.765Z,37.83
2022-12-28T02:26:47.414Z,28.80
2022-12-28T02:29:30.100Z,27.67
2022-12-28T02:32:18.115Z,34.23
2022-12-28T02:34:51.169Z,26.47
2022-12-28T02:37:34.776Z,28.77
2022-12-28T02:40:08.634Z,38.17
2022-12-28T02:42:39.280Z,28.17
2022-12-28T02:45:26.579Z,31.87
2022-12-28T02:48:12.151Z,23.67
2022-12-28T02:50:45.635Z,29.77
2022-12-28T02:53:44.487Z,28.23
2022-12-28T02:56:41.963Z,33.27
2022-12-28T02:59:42.060Z,31.97
2022-12-28T03:02:14.979Z,29.33
2022-12-28T03:04:48.759Z,31.10
2022-12-28T03:07:59.884Z,36.97
2022-12-28T03:10:34.760Z,30.77
2022-12-28T03:13:27.962Z,30.17
2022-12-28T03:15:58.034Z,26.07
2022-12-28T03:18:46.708Z,31.33
2022-12-28T03:21:34.161Z,33.27
2022-12-28T03:24:21.631Z,36.50
2022-12-28T03:27:10.212Z,35.07
2022-12-28T03:30:14.282Z,29.53
2022-12-28T03:32:41.917Z,34.47
2022-12-28T03:35:09.918Z,33.73
2022-12-28T03:37:47.164Z,32.47
2022-12-28T03:40:39.989Z,36.40
2022-12-28T03:43:39.729Z,41.93
2022-12-28T03:46:20.385Z,31.83
2022-12-28T03:48:50.011Z,28.33
2022-12-28T03:51:23.119Z,29.47
2022-12-28T03:53:52.005Z,32.53
2022-12-28T03:56:25.205Z,28.00
2022-12-28T03:58:55.119Z,32.00
2022-12-28T04:01:25.125Z,31.93
2022-12-28T04:03:52.121Z,30.53
2022-12-28T04:06:20.108Z,28.80
2022-12-28T04:08:47.304Z,26.13
2022-12-28T04:11:14.759Z,28.10
2022-12-28T04:13:44.874Z,26.10
2022-12-28T04:16:14.610Z,30.53
2022-12-28T04:18:43.490Z,29.30
2022-12-28T04:21:12.799Z,26.87
2022-12-28T04:23:42.544Z,21.57
2022-12-28T04:26:21.814Z,21.87
2022-12-28T04:28:51.604Z,22.90
2022-12-28T04:31:18.672Z,24.53
2022-12-28T04:33:52.274Z,26.10
2022-12-28T04:36:19.739Z,29.33
2022-12-28T04:38:49.566Z,25.47
2022-12-28T04:41:16.741Z,22.80
2022-12-28T04:43:43.546Z,25.83
2022-12-28T04:46:14.524Z,19.80
2022-12-28T04:48:41.679Z,25.07
2022-12-28T04:51:21.255Z,32.23
2022-12-28T04:53:48.119Z,28.10
2022-12-28T04:56:17.297Z,24.63
2022-12-28T04:58:46.916Z,24.80
2022-12-28T05:01:18.718Z,20.53
2022-12-28T05:03:54.509Z,27.23
2022-12-28T05:06:24.854Z,21.67
2022-12-28T05:08:52.003Z,20.77
2022-12-28T05:11:24.966Z,28.80
2022-12-28T05:13:51.957Z,22.90
2022-12-28T05:16:22.090Z,25.10
2022-12-28T05:18:49.369Z,23.77
2022-12-28T05:21:22.967Z,24.30
2022-12-28T05:23:50.440Z,22.07
2022-12-28T05:26:22.951Z,23.17
2022-12-28T05:28:49.896Z,20.73
2022-12-28T05:31:19.550Z,22.00
2022-12-28T05:33:47.576Z,26.57
2022-12-28T05:36:17.720Z,24.40
2022-12-28T05:38:44.877Z,21.30
2022-12-28T05:41:16.401Z,23.70
2022-12-28T05:43:43.884Z,22.83
2022-12-28T05:46:13.749Z,27.80
2022-12-28T05:48:42.034Z,23.63
2022-12-28T05:51:12.295Z,19.87
2022-12-28T05:53:40.097Z,21.90
2022-12-28T05:56:13.862Z,23.87
2022-12-28T05:58:42.369Z,18.70
2022-12-28T06:01:18.095Z,23.73
2022-12-28T06:03:45.861Z,28.93
2022-12-28T06:06:19.062Z,26.23
2022-12-28T06:08:47.363Z,21.57
2022-12-28T06:11:20.185Z,24.60
2022-12-28T06:13:47.217Z,25.80
2022-12-28T06:16:22.821Z,24.07
2022-12-28T06:18:51.336Z,22.40
2022-12-28T06:21:32.406Z,23.03
2022-12-28T06:24:00.859Z,22.13
2022-12-28T06:26:30.862Z,26.60
2022-12-28T06:28:58.724Z,22.80
2022-12-28T06:31:27.937Z,22.87
2022-12-28T06:34:00.059Z,21.87
2022-12-28T06:36:30.046Z,19.80
2022-12-28T06:38:58.631Z,21.70
2022-12-28T06:41:26.970Z,20.30
2022-12-28T06:43:54.800Z,21.87
2022-12-28T06:46:23.386Z,27.50
2022-12-28T06:48:51.097Z,17.03
2022-12-28T06:51:22.521Z,23.67
2022-12-28T06:53:51.357Z,20.40
2022-12-28T06:56:21.305Z,27.93
2022-12-28T06:58:49.722Z,23.60
2022-12-28T07:01:20.893Z,18.70
2022-12-28T07:03:49.276Z,18.57
2022-12-28T07:06:18.152Z,20.63
2022-12-28T07:08:49.581Z,22.03
2022-12-28T07:11:22.255Z,20.73
2022-12-28T07:13:49.100Z,25.50
2022-12-28T07:16:19.286Z,21.87
2022-12-28T07:18:50.870Z,20.13
2022-12-28T07:21:23.607Z,16.50
2022-12-28T07:23:52.157Z,18.30
2022-12-28T07:26:22.556Z,25.03
2022-12-28T07:28:52.121Z,19.50
2022-12-28T07:31:28.362Z,20.73
2022-12-28T07:33:56.946Z,22.03
2022-12-28T07:36:25.497Z,22.37
2022-12-28T07:38:53.186Z,24.43
2022-12-28T07:41:32.939Z,21.23
2022-12-28T07:44:00.984Z,20.00
2022-12-28T07:46:33.804Z,21.83
2022-12-28T07:49:01.211Z,20.97
2022-12-28T07:51:34.906Z,18.40
2022-12-28T07:54:03.072Z,21.97
2022-12-28T07:59:00.573Z,22.27
2022-12-28T08:01:31.692Z,21.67
2022-12-28T08:04:01.652Z,22.53
2022-12-28T08:06:30.472Z,20.30
2022-12-28T08:09:00.640Z,20.77
2022-12-28T08:11:33.450Z,17.63
2022-12-28T08:14:01.131Z,16.97
2022-12-28T08:16:31.782Z,18.53
2022-12-28T08:18:58.740Z,20.50
2022-12-28T08:21:28.637Z,21.10
2022-12-28T08:23:56.142Z,18.17
2022-12-28T08:26:35.122Z,20.33
2022-12-28T08:29:04.386Z,23.97
2022-12-28T08:31:37.675Z,25.43
2022-12-28T08:34:07.538Z,18.53
2022-12-28T08:36:34.902Z,19.93
2022-12-28T08:39:02.396Z,19.57
2022-12-28T08:41:30.525Z,21.80
2022-12-28T08:43:58.379Z,19.10
2022-12-28T08:46:31.309Z,23.80
2022-12-28T08:48:59.813Z,24.37
2022-12-28T08:51:39.872Z,23.13
2022-12-28T08:54:07.391Z,19.33
2022-12-28T08:56:37.085Z,29.87
2022-12-28T08:59:04.701Z,22.33
2022-12-28T09:01:40.810Z,36.90
2022-12-28T09:04:14.440Z,35.87
2022-12-28T09:06:41.602Z,23.57
2022-12-28T09:09:12.749Z,23.90
2022-12-28T09:11:41.123Z,24.20
2022-12-28T09:14:10.363Z,20.13
2022-12-28T09:16:38.791Z,22.87
2022-12-28T09:19:08.897Z,33.03
2022-12-28T09:21:38.375Z,38.27
2022-12-28T09:24:06.709Z,42.40
2022-12-28T09:26:38.603Z,34.67
2022-12-28T09:29:08.767Z,34.30
2022-12-28T09:31:37.182Z,50.17
2022-12-28T09:36:52.519Z,38.30
2022-12-28T09:39:20.825Z,24.63
2022-12-28T09:41:57.120Z,16.63
2022-12-28T09:44:48.775Z,19.10
2022-12-28T09:47:28.265Z,22.87
2022-12-28T09:49:55.075Z,17.20
2022-12-28T09:52:30.126Z,19.13
2022-12-28T09:55:05.949Z,17.80
2022-12-28T09:57:37.779Z,20.33
2022-12-28T10:00:08.622Z,22.43
2022-12-28T10:02:40.144Z,19.00
2022-12-28T10:05:07.913Z,22.60
2022-12-28T10:07:37.330Z,18.67
2022-12-28T10:10:04.779Z,20.27
2022-12-28T10:12:31.883Z,17.47
2022-12-28T10:14:59.504Z,20.97
2022-12-28T10:17:30.384Z,17.73
2022-12-28T10:19:59.124Z,14.53
2022-12-28T10:22:33.238Z,17.10
2022-12-28T10:24:59.973Z,15.47
2022-12-28T10:27:31.797Z,18.83
2022-12-28T10:30:01.393Z,19.07
2022-12-28T10:32:48.829Z,14.83
2022-12-28T10:35:33.833Z,17.33
2022-12-28T10:38:13.523Z,21.30
2022-12-28T10:40:41.241Z,24.27
2022-12-28T10:43:19.484Z,17.73
2022-12-28T10:45:49.889Z,17.90
2022-12-28T10:48:25.074Z,16.23
2022-12-28T10:50:56.196Z,15.93
2022-12-28T10:53:32.922Z,17.93
2022-12-28T10:56:13.895Z,18.57
2022-12-28T10:58:45.853Z,15.53
2022-12-28T11:01:12.934Z,26.27
2022-12-28T11:03:42.208Z,22.13
2022-12-28T11:06:27.062Z,14.73
2022-12-28T11:09:22.083Z,15.47
2022-12-28T11:11:51.138Z,14.97
2022-12-28T11:14:36.311Z,15.97
2022-12-28T11:17:17.607Z,17.00
2022-12-28T11:19:45.629Z,14.57
2022-12-28T11:22:15.719Z,22.80
2022-12-28T11:24:43.185Z,17.07
2022-12-28T11:27:16.656Z,15.17
2022-12-28T11:29:51.366Z,18.13
2022-12-28T11:32:24.223Z,16.80
2022-12-28T11:34:54.447Z,16.00
2022-12-28T11:37:21.317Z,19.17
2022-12-28T11:39:50.011Z,24.47
2022-12-28T11:42:40.652Z,18.73
2022-12-28T11:45:35.705Z,29.50
2022-12-28T11:48:43.445Z,17.97
2022-12-28T11:51:21.161Z,17.13
2022-12-28T11:53:48.176Z,17.33
2022-12-28T11:56:16.983Z,20.73
2022-12-28T11:58:47.314Z,20.97
2022-12-28T12:01:29.544Z,17.20
2022-12-28T12:03:56.463Z,18.07
2022-12-28T12:06:41.498Z,18.37
2022-12-28T12:09:38.176Z,17.83
2022-12-28T12:12:17.733Z,22.17
2022-12-28T12:14:51.714Z,16.60
2022-12-28T12:17:26.864Z,47.93
2022-12-28T12:19:58.779Z,19.17
2022-12-28T12:22:31.935Z,16.57
2022-12-28T12:25:39.225Z,17.70
2022-12-28T12:28:16.924Z,19.53
2022-12-28T12:30:45.565Z,18.93
2022-12-28T12:33:18.454Z,19.30
2022-12-28T12:36:10.240Z,17.77
2022-12-28T12:39:10.944Z,19.27
2022-12-28T12:42:09.117Z,26.57
2022-12-28T12:44:56.659Z,19.10
2022-12-28T12:48:01.688Z,22.43
2022-12-28T12:50:45.315Z,21.03
2022-12-28T12:53:33.474Z,20.57
2022-12-28T12:56:26.350Z,19.80
2022-12-28T12:59:05.845Z,21.13
2022-12-28T13:01:32.857Z,38.30
2022-12-28T13:04:08.528Z,24.97
2022-12-28T13:06:39.478Z,25.93
2022-12-28T13:09:08.608Z,19.50
2022-12-28T13:11:38.785Z,19.80
2022-12-28T13:14:06.706Z,32.73
2022-12-28T13:16:33.783Z,18.70
2022-12-28T13:19:04.399Z,28.63
2022-12-28T13:21:46.285Z,54.27
2022-12-28T13:24:26.303Z,27.77
2022-12-28T13:26:55.433Z,34.60
2022-12-28T13:29:24.934Z,23.80
2022-12-28T13:31:52.453Z,21.83
2022-12-28T13:34:23.923Z,18.03
2022-12-28T13:37:02.227Z,23.63
2022-12-28T13:39:41.395Z,18.77
2022-12-28T13:42:28.176Z,21.63
2022-12-28T13:44:59.121Z,21.60
2022-12-28T13:47:32.215Z,18.17
2022-12-28T13:50:05.590Z,22.10
2022-12-28T13:52:51.081Z,17.03
2022-12-28T13:55:26.789Z,18.33
2022-12-28T13:58:00.071Z,15.80
2022-12-28T14:00:28.887Z,19.90
2022-12-28T14:02:58.081Z,20.03
2022-12-28T14:05:30.732Z,17.30
2022-12-28T14:07:59.037Z,17.93
2022-12-28T14:10:26.918Z,18.87
2022-12-28T14:12:55.654Z,21.40
2022-12-28T14:15:23.458Z,14.63
2022-12-28T14:17:51.957Z,19.30
2022-12-28T14:20:18.977Z,19.97
2022-12-28T14:22:46.291Z,16.20
2022-12-28T14:25:15.965Z,16.20
2022-12-28T14:27:56.976Z,17.23
2022-12-28T14:30:28.291Z,16.97
2022-12-28T14:32:56.641Z,18.63
2022-12-28T14:35:26.260Z,15.90
2022-12-28T14:37:56.981Z,14.53
2022-12-28T14:40:31.344Z,14.67
2022-12-28T14:43:07.327Z,16.23
2022-12-28T14:48:29.884Z,12.80
2022-12-28T14:51:03.343Z,19.03
2022-12-28T14:53:31.375Z,14.47
2022-12-28T14:56:04.644Z,17.07
2022-12-28T14:58:51.242Z,15.13
2022-12-28T15:00:16.183Z,14.57
2022-12-28T15:01:21.186Z,16.63
2022-12-28T15:03:55.655Z,14.93
2022-12-28T15:06:26.705Z,12.57
2022-12-28T15:08:55.553Z,11.93
2022-12-28T15:11:24.366Z,12.83
2022-12-28T15:13:51.784Z,15.17
2022-12-28T15:16:22.799Z,16.67
2022-12-28T15:18:50.127Z,15.47
2022-12-28T15:21:19.787Z,12.37
2022-12-28T15:23:51.550Z,12.70
2022-12-28T15:26:19.290Z,16.43
2022-12-28T15:28:46.387Z,13.07
2022-12-28T15:31:17.780Z,12.57
2022-12-28T15:33:45.801Z,13.73
2022-12-28T15:36:21.196Z,10.40
2022-12-28T15:38:49.272Z,12.87
2022-12-28T15:41:35.556Z,10.50
2022-12-28T15:44:03.633Z,14.70
2022-12-28T15:46:30.464Z,16.23
2022-12-28T15:48:57.862Z,12.53
2022-12-28T15:51:24.644Z,14.53
2022-12-28T15:53:51.724Z,15.87
2022-12-28T15:56:24.473Z,13.40
2022-12-28T15:58:56.508Z,12.40
2022-12-28T16:01:25.138Z,11.73
2022-12-28T16:03:54.253Z,11.10
2022-12-28T16:06:22.444Z,11.00
2022-12-28T16:08:53.349Z,9.50
2022-12-28T16:11:20.849Z,12.30
2022-12-28T16:13:59.278Z,13.47
2022-12-28T16:16:28.497Z,11.57
2022-12-28T16:18:57.444Z,11.27
2022-12-28T16:21:26.454Z,16.73
2022-12-28T16:23:53.783Z,14.47
2022-12-28T16:26:20.888Z,13.03
2022-12-28T16:28:48.349Z,14.53
2022-12-28T16:31:27.135Z,13.97
2022-12-28T16:33:55.834Z,14.53
2022-12-28T16:36:23.402Z,12.60
2022-12-28T16:38:50.951Z,14.30
2022-12-28T16:41:18.324Z,15.27
2022-12-28T16:43:46.889Z,14.40
2022-12-28T16:46:13.959Z,13.67
2022-12-28T16:48:41.323Z,14.00
2022-12-28T16:51:08.528Z,15.23
2022-12-28T16:53:37.320Z,16.77
2022-12-28T16:56:06.138Z,15.43
2022-12-28T16:58:33.550Z,15.60
2022-12-28T17:01:08.686Z,16.57
2022-12-28T17:03:37.443Z,15.60
2022-12-28T17:06:05.158Z,17.60
2022-12-28T17:08:34.452Z,13.83
2022-12-28T17:11:01.273Z,15.67
2022-12-28T17:13:28.329Z,15.00
2022-12-28T17:15:59.833Z,14.23
2022-12-28T17:18:27.313Z,17.13
2022-12-28T17:20:54.232Z,14.20
2022-12-28T17:23:21.223Z,13.57
2022-12-28T17:25:53.922Z,16.47
2022-12-28T17:28:22.097Z,19.23
2022-12-28T17:30:49.249Z,14.93
2022-12-28T17:33:16.815Z,16.83
2022-12-28T17:35:43.715Z,13.90
2022-12-28T17:38:10.783Z,18.93
2022-12-28T17:40:39.193Z,14.57
2022-12-28T17:43:06.219Z,16.57
2022-12-28T17:45:35.480Z,20.30
2022-12-28T17:48:02.920Z,17.07
2022-12-28T17:50:29.697Z,19.87
2022-12-28T17:52:58.472Z,16.37
2022-12-28T17:55:25.172Z,15.40
2022-12-28T17:57:52.178Z,13.97
2022-12-28T18:00:19.198Z,18.63
2022-12-28T18:02:46.955Z,14.67
2022-12-28T18:05:14.502Z,15.17
2022-12-28T18:07:41.524Z,14.57
2022-12-28T18:10:09.345Z,15.50
2022-12-28T18:12:36.516Z,16.50
2022-12-28T18:15:03.660Z,16.33
2022-12-28T18:17:30.941Z,20.53
2022-12-28T18:19:57.654Z,18.90
2022-12-28T18:22:24.769Z,24.13
2022-12-28T18:24:53.471Z,16.37
2022-12-28T18:27:20.543Z,19.10
2022-12-28T18:29:47.336Z,21.50
2022-12-28T18:32:14.326Z,18.43
2022-12-28T18:34:41.054Z,21.13
2022-12-28T18:37:08.232Z,16.43
2022-12-28T18:39:35.429Z,15.23
2022-12-28T18:42:03.372Z,17.70
2022-12-28T18:44:30.275Z,17.70
2022-12-28T18:46:57.489Z,14.27
2022-12-28T18:49:24.710Z,18.07
2022-12-28T18:51:51.743Z,19.30
2022-12-28T18:54:18.614Z,18.47
2022-12-28T18:56:45.727Z,14.17
2022-12-28T18:59:12.448Z,17.70
2022-12-28T19:04:29.303Z,17.03
2022-12-28T19:06:56.663Z,14.50
2022-12-28T19:09:23.633Z,14.50
2022-12-28T19:11:52.760Z,19.67
2022-12-28T19:14:19.999Z,14.20
2022-12-28T19:16:47.300Z,16.97
2022-12-28T19:19:16.916Z,11.93
2022-12-28T19:21:44.496Z,16.57
2022-12-28T19:24:15.754Z,14.50
2022-12-28T19:26:43.331Z,15.93
2022-12-28T19:29:11.789Z,15.40
2022-12-28T19:31:39.081Z,15.17
2022-12-28T19:34:06.189Z,13.17
2022-12-28T19:36:33.723Z,12.80
2022-12-28T19:39:00.651Z,17.70
2022-12-28T19:41:27.790Z,15.60
2022-12-28T19:43:54.844Z,14.43
2022-12-28T19:46:32.631Z,17.77
2022-12-28T19:49:03.867Z,16.30
2022-12-28T19:51:32.939Z,16.47
2022-12-28T19:54:01.419Z,16.70
2022-12-28T19:56:29.308Z,14.63
2022-12-28T19:59:05.070Z,16.80
2022-12-28T20:01:35.222Z,13.87
2022-12-28T20:04:08.789Z,16.57
2022-12-28T20:06:41.417Z,14.63
2022-12-28T20:09:08.493Z,15.43
2022-12-28T20:11:36.249Z,12.73
2022-12-28T20:14:04.167Z,13.17
2022-12-28T20:16:34.650Z,16.77
2022-12-28T20:19:03.028Z,17.37
2022-12-28T20:21:30.348Z,12.20
2022-12-28T20:23:57.180Z,11.93
2022-12-28T20:26:25.160Z,15.33
2022-12-28T20:28:52.260Z,15.53
2022-12-28T20:31:20.000Z,11.67
2022-12-28T20:33:47.529Z,11.93
2022-12-28T20:36:20.849Z,12.70
2022-12-28T20:38:48.823Z,13.40
2022-12-28T20:41:43.969Z,13.00
2022-12-28T20:44:14.501Z,14.47
2022-12-28T20:46:43.539Z,13.67
2022-12-28T20:49:10.662Z,14.53
2022-12-28T20:51:38.012Z,14.40
2022-12-28T20:54:05.577Z,15.40
2022-12-28T20:56:33.056Z,19.70
2022-12-28T20:59:00.095Z,14.03
2022-12-28T21:01:27.544Z,11.37
2022-12-28T21:03:54.608Z,14.60
2022-12-28T21:06:21.761Z,11.40
2022-12-28T21:08:48.651Z,18.17
2022-12-28T21:11:15.807Z,14.37
2022-12-28T21:13:44.855Z,14.80
2022-12-28T21:16:14.507Z,15.10
2022-12-28T21:18:42.376Z,13.97
2022-12-28T21:21:17.275Z,12.07
2022-12-28T21:23:44.907Z,12.27
2022-12-28T21:26:17.403Z,14.17
2022-12-28T21:28:44.322Z,16.50
2022-12-28T21:31:12.943Z,13.17
2022-12-28T21:33:40.791Z,13.23
2022-12-28T21:36:17.210Z,11.47
2022-12-28T21:38:45.977Z,12.57
2022-12-28T21:41:41.976Z,15.70
2022-12-28T21:44:12.459Z,13.57
2022-12-28T21:46:40.409Z,13.83
2022-12-28T21:49:08.003Z,13.63
2022-12-28T21:51:35.621Z,14.60
2022-12-28T21:54:05.990Z,14.97
2022-12-28T21:56:35.225Z,16.07
2022-12-28T21:59:02.810Z,14.30
2022-12-28T22:01:48.944Z,20.50
2022-12-28T22:04:37.519Z,13.27
2022-12-28T22:07:06.827Z,14.33
2022-12-28T22:09:54.191Z,13.30
2022-12-28T22:12:37.507Z,14.17
2022-12-28T22:15:25.834Z,12.37
2022-12-28T22:18:36.679Z,16.30
2022-12-28T22:21:01.113Z,13.47
2022-12-28T22:23:34.235Z,11.33
2022-12-28T22:26:01.611Z,12.07
2022-12-28T22:28:28.637Z,13.07
2022-12-28T22:30:55.434Z,18.40
2022-12-28T22:33:22.603Z,17.63
2022-12-28T22:35:49.397Z,14.77
2022-12-28T22:38:16.383Z,12.73
2022-12-28T22:40:43.185Z,14.57
2022-12-28T22:43:10.275Z,16.57
2022-12-28T22:45:37.118Z,12.70
2022-12-28T22:48:04.408Z,12.33
2022-12-28T22:50:31.221Z,13.80
2022-12-28T22:52:58.444Z,16.37
2022-12-28T22:55:25.309Z,11.67
2022-12-28T22:57:52.379Z,14.60
2022-12-28T23:00:19.233Z,13.10
2022-12-28T23:02:46.501Z,13.37
2022-12-28T23:05:13.906Z,14.97
2022-12-28T23:07:40.941Z,11.77
2022-12-28T23:10:10.195Z,14.70
2022-12-28T23:12:37.431Z,13.03
2022-12-28T23:15:30.640Z,13.73
2022-12-28T23:18:17.704Z,15.93
2022-12-28T23:21:02.893Z,10.80
2022-12-28T23:23:48.819Z,13.43
2022-12-28T23:26:53.984Z,12.77
2022-12-28T23:29:24.286Z,9.67
2022-12-28T23:31:54.102Z,13.43
2022-12-28T23:34:21.172Z,11.20
2022-12-28T23:36:47.884Z,16.43
2022-12-28T23:39:14.910Z,15.00
2022-12-28T23:41:50.600Z,15.53
2022-12-28T23:44:25.744Z,13.20
2022-12-28T23:46:58.599Z,14.10
2022-12-28T23:49:26.909Z,18.67
2022-12-28T23:51:53.668Z,17.87
2022-12-28T23:54:20.944Z,19.27
2022-12-28T23:56:49.083Z,19.60
2022-12-28T23:59:16.274Z,21.67
